Time;durP1;ratioP1;P1;durP2;ratioP2;P2;SDS_P1;SDS_P2;PMS_P1;PMS_P2;Temp;Humidity;BMP_temperature;BMP_pressure;BME280_temperature;BME280_humidity;BME280_pressure;Samples;Min_cycle;Max_cycle;Signal;HPM_P1;HPM_P2
2022/06/14 00:00:53;;;;;;;5.30;1.53;;;;;;;13.65;72.79;101183.66;5053387;28;20871;-74
2022/06/14 00:02:27;;;;;;;2.17;1.17;;;;;;;13.61;72.49;101174.13;5051143;28;20205;-74
2022/06/14 00:04:56;;;;;;;2.13;1.00;;;;;;;13.59;72.20;101198.66;5053485;28;20209;-74
2022/06/14 00:07:24;;;;;;;3.80;1.20;;;;;;;13.55;73.08;101176.88;5053613;28;20235;-74
2022/06/14 00:09:50;;;;;;;3.23;1.50;;;;;;;13.53;73.00;101173.41;5053897;28;20288;-74
2022/06/14 00:12:17;;;;;;;2.40;1.30;;;;;;;13.58;74.33;101168.94;5053627;28;20696;-74
2022/06/14 00:14:43;;;;;;;3.00;1.40;;;;;;;13.51;72.85;101169.94;5053786;28;20256;-74
2022/06/14 00:17:10;;;;;;;3.53;1.40;;;;;;;13.48;73.12;101168.25;5053462;28;20220;-74
2022/06/14 00:19:36;;;;;;;2.90;1.63;;;;;;;13.38;72.30;101207.78;5053456;28;20205;-74
2022/06/14 00:22:03;;;;;;;3.80;1.30;;;;;;;13.34;73.12;101193.88;5053399;28;20220;-74
2022/06/14 00:24:31;;;;;;;3.03;1.40;;;;;;;13.34;72.20;101203.50;5053804;28;20258;-74
2022/06/14 00:26:57;;;;;;;1.80;1.50;;;;;;;13.26;72.02;101216.69;5053422;28;20263;-74
2022/06/14 00:29:24;;;;;;;4.97;1.77;;;;;;;13.26;72.67;101200.97;5052466;28;20721;-74
2022/06/14 00:31:50;;;;;;;3.17;1.87;;;;;;;13.16;72.81;101208.16;5053592;28;20193;-74
2022/06/14 00:34:17;;;;;;;3.30;1.20;;;;;;;13.10;74.55;101187.25;5053277;28;20211;-74
2022/06/14 00:36:51;;;;;;;3.83;1.50;;;;;;;13.16;74.82;101144.34;5053464;28;20304;-74
2022/06/14 00:39:18;;;;;;;3.53;1.40;;;;;;;13.15;75.05;101126.91;5053147;28;20201;-74
2022/06/14 00:41:49;;;;;;;3.20;1.30;;;;;;;13.08;73.86;101140.13;5052967;28;20279;-74
2022/06/14 00:44:19;;;;;;;2.37;1.20;;;;;;;12.96;73.70;101174.41;5053083;28;20193;-74
2022/06/14 00:46:54;;;;;;;2.40;1.30;;;;;;;12.79;74.53;101176.47;5053247;28;20683;-74
2022/06/14 00:49:26;;;;;;;4.70;1.80;;;;;;;12.85;76.06;101126.56;5052625;28;20200;-74
2022/06/14 00:51:58;;;;;;;3.80;1.40;;;;;;;12.62;73.63;101161.00;5053114;28;20224;-74
2022/06/14 00:54:30;;;;;;;2.60;1.30;;;;;;;12.73;75.81;101134.66;5052924;28;20227;-74
2022/06/14 00:57:02;;;;;;;3.07;1.37;;;;;;;12.73;75.40;101126.78;5052826;28;20224;-74
2022/06/14 00:59:33;;;;;;;4.13;1.87;;;;;;;12.56;74.57;101164.56;5052255;28;20616;-74
2022/06/14 01:02:08;;;;;;;3.57;1.40;;;;;;;12.51;75.23;101138.47;5053203;28;20220;-74
2022/06/14 01:04:34;;;;;;;2.63;1.20;;;;;;;12.65;77.55;101090.25;5052275;28;20246;-74
2022/06/14 01:07:06;;;;;;;3.73;1.80;;;;;;;12.75;77.25;101072.63;5052385;28;20217;-74
2022/06/14 01:09:38;;;;;;;3.67;1.50;;;;;;;12.87;78.72;101033.09;5052604;28;20223;-74
2022/06/14 01:12:10;;;;;;;3.00;1.20;;;;;;;12.93;78.57;101021.63;5052998;28;20189;-74
2022/06/14 01:14:44;;;;;;;2.63;1.60;;;;;;;12.97;77.42;101026.75;5052504;28;20204;-74
2022/06/14 01:17:13;;;;;;;4.93;1.77;;;;;;;12.94;76.42;101044.31;5052476;28;20588;-74
2022/06/14 01:19:40;;;;;;;2.47;1.20;;;;;;;12.89;76.84;101067.97;5051712;28;20202;-74
2022/06/14 01:22:29;;;;;;;3.07;1.57;;;;;;;12.80;76.52;101078.63;5052486;28;20267;-74
2022/06/14 01:24:56;;;;;;;2.37;1.17;;;;;;;12.83;77.59;101042.75;5044109;28;20575;-74
2022/06/14 01:27:25;;;;;;;1.37;1.00;;;;;;;12.79;76.51;101046.31;5052415;28;20229;-74
2022/06/14 01:30:01;;;;;;;3.13;1.50;;;;;;;12.45;73.97;101120.22;5051704;28;20251;-74
2022/06/14 01:32:31;;;;;;;3.90;1.30;;;;;;;12.37;76.20;101123.84;5052668;28;20189;-74
2022/06/14 01:35:01;;;;;;;3.33;1.40;;;;;;;12.20;76.44;101108.41;5051991;28;20202;-74
2022/06/14 01:37:29;;;;;;;2.90;1.90;;;;;;;12.20;77.66;101083.09;5052157;28;20287;-74
2022/06/14 01:39:57;;;;;;;3.63;2.03;;;;;;;12.36;79.38;101025.25;5051104;28;20247;-74
2022/06/14 01:42:28;;;;;;;3.07;1.77;;;;;;;12.50;79.97;100994.47;5051858;28;20647;-74
2022/06/14 01:45:04;;;;;;;1.77;1.47;;;;;;;12.38;77.76;101040.03;5051660;28;20213;-74
2022/06/14 01:47:36;;;;;;;2.30;1.27;;;;;;;12.48;79.02;101014.56;5052147;28;20209;-74
2022/06/14 01:53:16;;;;;;;5.83;1.73;;;;;;;12.57;78.12;101017.03;5051763;28;20211;-74
2022/06/14 01:55:47;;;;;;;4.43;1.47;;;;;;;12.52;76.90;101045.91;5051508;28;20707;-74
2022/06/14 01:58:22;;;;;;;3.70;1.70;;;;;;;12.58;77.12;101058.03;5051624;28;20208;-74
2022/06/14 02:00:53;;;;;;;4.00;1.60;;;;;;;12.64;78.61;101026.50;5051604;28;20220;-74
2022/06/14 02:06:18;;;;;;;3.83;1.30;;;;;;;12.74;78.25;101010.63;5051420;28;20246;-74
2022/06/14 02:08:53;;;;;;;3.43;1.27;;;;;;;12.72;77.62;101049.94;5051758;28;20203;-74
2022/06/14 02:11:26;;;;;;;3.33;1.30;;;;;;;12.69;77.65;101050.00;5043677;28;20387;-74
2022/06/14 02:13:58;;;;;;;3.30;1.40;;;;;;;12.67;77.04;101057.88;5051325;28;20199;-74
2022/06/14 02:16:28;;;;;;;3.43;1.97;;;;;;;12.69;77.67;101070.97;5043798;28;20708;-74
2022/06/14 02:18:59;;;;;;;2.27;1.30;;;;;;;12.72;77.52;101044.69;5051225;28;20197;-74
2022/06/14 02:21:32;;;;;;;3.37;1.60;;;;;;;12.74;78.13;101039.44;5043628;28;20744;-75
2022/06/14 02:24:13;;;;;;;4.00;1.23;;;;;;;12.75;77.51;101044.66;5051182;28;20200;-74
2022/06/14 02:26:44;;;;;;;4.27;1.30;;;;;;;12.71;76.59;101049.06;5045459;28;20271;-74
2022/06/14 02:29:17;;;;;;;4.07;1.43;;;;;;;12.69;77.62;101066.56;5050863;28;20204;-74
2022/06/14 02:31:48;;;;;;;2.13;1.23;;;;;;;12.70;78.81;101031.66;5051586;28;20189;-74
2022/06/14 02:34:20;;;;;;;3.70;1.37;;;;;;;12.69;78.36;101034.28;5051893;28;20227;-74
2022/06/14 02:36:51;;;;;;;2.93;1.30;;;;;;;12.64;78.56;101055.31;5051244;28;20224;-74
2022/06/14 02:39:24;;;;;;;5.73;1.40;;;;;;;12.44;75.77;101094.06;5051082;28;20201;-74
2022/06/14 02:41:56;;;;;;;3.53;1.50;;;;;;;12.55;78.84;101059.84;5051356;28;20270;-74
2022/06/14 02:44:28;;;;;;;3.60;1.47;;;;;;;12.59;79.08;101041.44;5050797;28;20209;-74
2022/06/14 02:46:58;;;;;;;1.83;1.40;;;;;;;12.61;79.38;101015.22;5050878;28;20639;-74
2022/06/14 02:49:31;;;;;;;3.20;1.43;;;;;;;12.63;78.83;101029.16;5050886;28;20297;-74
2022/06/14 02:52:02;;;;;;;4.40;1.17;;;;;;;12.62;78.94;101028.28;5051691;28;20833;-74
2022/06/14 02:54:34;;;;;;;3.90;1.23;;;;;;;12.61;78.33;101039.66;5055068;28;20262;-74
2022/06/14 02:57:16;;;;;;;2.53;1.37;;;;;;;12.65;78.85;101053.56;5055149;28;20290;-74
2022/06/14 02:59:48;;;;;;;1.87;1.20;;;;;;;12.50;77.46;101076.50;5055023;28;20757;-74
2022/06/14 03:02:20;;;;;;;2.87;1.70;;;;;;;12.40;76.84;101089.78;5055429;28;20227;-74
2022/06/14 03:04:51;;;;;;;2.53;1.20;;;;;;;12.08;75.36;101146.09;5047183;28;20200;-74
2022/06/14 03:07:22;;;;;;;6.63;1.67;;;;;;;12.21;78.07;101091.78;5055232;28;20229;-74
2022/06/14 03:09:50;;;;;;;5.50;1.40;;;;;;;12.14;76.97;101077.94;5047250;28;20655;-74
2022/06/14 03:12:26;;;;;;;5.57;1.57;;;;;;;12.12;77.65;101104.13;5055331;28;20250;-74
2022/06/14 03:15:04;;;;;;;1.90;1.13;;;;;;;12.19;77.86;101060.44;5047228;28;20667;-74
2022/06/14 03:17:44;;;;;;;3.87;1.60;;;;;;;12.02;77.81;101086.84;5054796;28;20217;-74
2022/06/14 03:20:15;;;;;;;2.73;1.53;;;;;;;12.16;79.51;101043.91;5054656;28;20189;-74
2022/06/14 03:22:49;;;;;;;2.97;2.20;;;;;;;12.22;79.49;101020.25;5054690;28;20229;-74
2022/06/14 03:25:24;;;;;;;4.63;1.47;;;;;;;12.19;78.58;101049.97;5054853;28;20206;-74
2022/06/14 03:27:56;;;;;;;4.63;1.70;;;;;;;12.07;76.95;101068.44;5054364;28;20201;-74
2022/06/14 03:30:27;;;;;;;3.97;1.40;;;;;;;12.09;77.59;101077.13;5053984;28;20619;-74
2022/06/14 03:33:01;;;;;;;3.53;1.40;;;;;;;12.13;78.83;101050.06;5054491;28;20213;-74
2022/06/14 03:35:32;;;;;;;2.90;1.50;;;;;;;12.19;78.45;101056.94;5054454;28;20626;-74
2022/06/14 03:38:02;;;;;;;2.40;1.30;;;;;;;12.27;78.65;101032.38;5046383;28;20198;-74
2022/06/14 03:40:30;;;;;;;2.07;1.33;;;;;;;12.20;76.91;101075.25;5054311;28;20239;-74
2022/06/14 03:42:57;;;;;;;2.53;1.20;;;;;;;12.34;78.78;101032.28;5054090;28;20217;-74
2022/06/14 03:45:32;;;;;;;4.20;1.53;;;;;;;12.33;77.28;101060.22;5054209;28;20209;-74
2022/06/14 03:47:59;;;;;;;2.20;1.37;;;;;;;12.31;77.44;101085.56;5054395;28;20212;-75
2022/06/14 03:50:30;;;;;;;4.83;1.30;;;;;;;12.31;78.07;101072.47;5054090;28;20202;-74
2022/06/14 03:53:10;;;;;;;2.83;1.20;;;;;;;12.36;77.61;101077.63;5054269;28;20201;-74
2022/06/14 03:55:47;;;;;;;3.30;1.30;;;;;;;12.34;77.13;101095.09;5054338;28;20320;-74
2022/06/14 03:58:33;;;;;;;3.63;1.50;;;;;;;12.38;77.35;101092.41;5047562;28;20206;-74
2022/06/14 04:01:04;;;;;;;2.87;1.30;;;;;;;12.32;76.90;101116.94;5053773;28;20805;-74
2022/06/14 04:04:03;;;;;;;3.00;1.33;;;;;;;12.31;77.31;101112.59;5053470;28;20213;-74
2022/06/14 04:06:42;;;;;;;3.13;1.50;;;;;;;12.31;77.20;101109.13;5043586;28;20623;-74
2022/06/14 04:09:21;;;;;;;3.47;1.57;;;;;;;12.34;76.89;101109.06;5053667;28;20654;-74
2022/06/14 04:11:57;;;;;;;2.57;1.40;;;;;;;12.29;77.18;101113.50;5053847;28;20243;-74
2022/06/14 04:14:39;;;;;;;4.73;1.97;;;;;;;12.37;77.47;101111.63;5053923;28;20258;-74
2022/06/14 04:17:16;;;;;;;4.33;1.93;;;;;;;12.30;77.69;101083.81;5053900;28;20221;-74
2022/06/14 04:19:55;;;;;;;2.57;1.23;;;;;;;12.36;78.33;101081.09;5053639;28;20279;-74
2022/06/14 04:22:29;;;;;;;2.80;1.50;;;;;;;12.35;76.72;101086.34;5047197;28;20719;-74
2022/06/14 04:25:02;;;;;;;2.50;1.30;;;;;;;12.41;76.54;101110.69;5053878;28;20228;-74
2022/06/14 04:27:37;;;;;;;2.90;1.30;;;;;;;12.42;76.88;101122.03;5053692;28;20275;-74
2022/06/14 04:30:10;;;;;;;4.37;1.60;;;;;;;12.41;76.76;101117.69;5052746;28;20294;-74
2022/06/14 04:32:45;;;;;;;4.60;2.30;;;;;;;12.51;77.02;101096.56;5053780;28;20572;-74
2022/06/14 04:35:18;;;;;;;2.20;1.57;;;;;;;12.55;76.78;101099.13;5053212;28;20240;-74
2022/06/14 04:37:50;;;;;;;2.40;1.17;;;;;;;12.52;77.00;101097.41;5053502;28;20209;-74
2022/06/14 04:40:22;;;;;;;5.00;2.00;;;;;;;12.58;76.69;101104.31;5045399;28;20216;-74
2022/06/14 04:42:56;;;;;;;2.83;1.70;;;;;;;12.66;75.98;101126.00;5053233;28;20639;-74
2022/06/14 04:45:29;;;;;;;3.40;1.63;;;;;;;12.68;76.01;101117.22;5046248;28;20223;-74
2022/06/14 04:48:02;;;;;;;1.90;1.33;;;;;;;12.69;74.88;101146.91;5053564;28;20205;-74
2022/06/14 04:50:35;;;;;;;2.60;1.47;;;;;;;12.71;75.59;101158.25;5053262;28;20243;-74
2022/06/14 04:53:06;;;;;;;2.20;1.03;;;;;;;12.55;73.75;101191.66;5050278;28;20206;-74
2022/06/14 04:55:36;;;;;;;2.93;1.37;;;;;;;12.61;73.61;101204.66;5048170;28;20222;-74
2022/06/14 04:58:10;;;;;;;4.27;2.10;;;;;;;12.63;73.73;101221.22;5044490;28;20619;-74
2022/06/14 05:00:42;;;;;;;10.50;3.70;;;;;;;12.73;73.95;101205.38;5047687;28;20210;-74
2022/06/14 05:03:13;;;;;;;4.27;1.43;;;;;;;12.78;73.52;101216.63;5045791;28;20267;-74
2022/06/14 05:05:42;;;;;;;3.83;1.47;;;;;;;12.84;72.83;101229.63;5045412;28;20221;-74
2022/06/14 05:08:14;;;;;;;3.63;1.90;;;;;;;12.88;73.61;101232.19;5044048;28;20201;-74
2022/06/14 05:10:45;;;;;;;6.20;2.00;;;;;;;12.81;73.11;101227.94;5044026;28;20194;-74
2022/06/14 05:13:20;;;;;;;4.20;1.57;;;;;;;12.91;73.64;101224.28;5043725;28;20201;-74
2022/06/14 05:15:50;;;;;;;3.10;1.87;;;;;;;12.91;74.46;101221.66;5043535;28;20625;-75
2022/06/14 05:18:25;;;;;;;4.07;2.50;;;;;;;12.90;74.99;101201.59;5041326;28;20260;-74
2022/06/14 05:20:56;;;;;;;3.23;1.80;;;;;;;12.71;75.08;101192.28;5044451;28;20675;-74
2022/06/14 05:23:31;;;;;;;3.93;1.97;;;;;;;12.69;75.03;101194.06;5043709;28;20762;-74
2022/06/14 05:26:05;;;;;;;3.93;1.80;;;;;;;12.71;74.96;101192.28;5041068;28;20599;-74
2022/06/14 05:28:38;;;;;;;3.87;1.87;;;;;;;12.75;74.85;101193.13;5041960;28;20209;-74
2022/06/14 05:31:14;;;;;;;3.77;2.47;;;;;;;12.82;74.26;101199.97;5045821;28;20240;-74
2022/06/14 05:33:51;;;;;;;3.33;1.87;;;;;;;12.87;75.13;101198.16;5045564;28;20276;-74
2022/06/14 05:36:24;;;;;;;4.30;1.70;;;;;;;12.98;74.17;101196.19;5042109;28;20228;-74
2022/06/14 05:38:55;;;;;;;4.00;1.83;;;;;;;13.10;73.97;101203.88;5040426;28;20194;-76
2022/06/14 05:41:29;;;;;;;5.23;1.90;;;;;;;13.24;73.59;101223.72;5041686;28;20608;-75
2022/06/14 05:44:03;;;;;;;4.10;2.27;;;;;;;13.08;73.43;101237.13;5038981;28;20612;-74
2022/06/14 05:46:34;;;;;;;3.13;1.77;;;;;;;13.19;75.00;101220.34;5041166;28;20312;-74
2022/06/14 05:49:06;;;;;;;3.57;1.77;;;;;;;13.28;74.61;101214.94;5040150;28;20206;-74
2022/06/14 05:51:39;;;;;;;4.33;2.23;;;;;;;13.33;74.65;101207.88;5043441;28;20198;-74
2022/06/14 05:54:12;;;;;;;3.60;1.93;;;;;;;13.45;74.31;101210.28;5039328;28;20191;-74
2022/06/14 05:56:43;;;;;;;6.53;1.90;;;;;;;13.55;74.50;101203.09;5042746;28;20221;-74
2022/06/14 05:59:21;;;;;;;3.33;2.40;;;;;;;13.20;75.48;101215.06;5039011;28;20611;-75
2022/06/14 06:01:54;;;;;;;5.43;2.23;;;;;;;13.34;75.62;101179.88;5046641;28;20629;-75
2022/06/14 06:04:25;;;;;;;3.37;2.07;;;;;;;12.70;78.06;101152.16;5045126;28;20202;-75
2022/06/14 06:07:00;;;;;;;2.07;1.87;;;;;;;12.59;79.42;101098.22;5044523;28;20275;-74
2022/06/14 06:09:32;;;;;;;3.43;2.10;;;;;;;12.58;79.25;101071.13;5045626;28;20200;-74
2022/06/14 06:12:04;;;;;;;2.73;2.20;;;;;;;12.66;79.35;101078.84;5042339;28;20355;-75
2022/06/14 06:14:34;;;;;;;3.37;2.43;;;;;;;12.15;81.65;101053.53;5043628;28;20205;-75
2022/06/14 06:17:04;;;;;;;4.57;2.63;;;;;;;12.18;83.57;100985.41;5043973;28;20275;-74
2022/06/14 06:19:37;;;;;;;2.97;2.77;;;;;;;12.14;83.81;100957.56;5045357;28;20196;-74
2022/06/14 06:22:09;;;;;;;3.83;2.53;;;;;;;12.26;83.12;100953.88;5041777;28;20595;-74
2022/06/14 06:24:39;;;;;;;3.13;2.27;;;;;;;12.38;83.44;100968.50;5043263;28;20204;-74
2022/06/14 06:27:09;;;;;;;2.93;2.30;;;;;;;12.57;83.55;100959.44;5041117;28;20221;-74
2022/06/14 06:29:44;;;;;;;2.50;2.20;;;;;;;12.32;82.50;100988.66;5044086;28;20269;-74
2022/06/14 06:32:11;;;;;;;4.43;3.40;;;;;;;12.36;83.01;100991.22;5048837;28;20215;-74
2022/06/14 06:34:38;;;;;;;3.50;2.23;;;;;;;12.46;83.65;100977.06;5040278;28;20207;-74
2022/06/14 06:37:10;;;;;;;4.07;2.30;;;;;;;12.51;82.58;100998.81;5042013;28;20224;-74
2022/06/14 06:39:49;;;;;;;4.20;2.30;;;;;;;12.74;81.78;101023.72;5045141;28;20276;-74
2022/06/14 06:42:24;;;;;;;2.67;1.90;;;;;;;12.90;81.03;101047.00;5044081;28;20228;-74
2022/06/14 06:44:55;;;;;;;2.57;2.03;;;;;;;12.93;80.01;101071.41;5044464;28;20201;-74
2022/06/14 06:47:28;;;;;;;5.03;2.17;;;;;;;12.58;80.50;101089.47;5044355;28;20279;-74
2022/06/14 06:50:04;;;;;;;5.13;2.23;;;;;;;12.74;80.07;101081.34;5041064;28;20224;-74
2022/06/14 06:52:40;;;;;;;2.90;1.93;;;;;;;12.90;79.53;101095.91;5044435;28;20244;-74
2022/06/14 06:55:19;;;;;;;5.77;2.93;;;;;;;12.86;79.21;101115.19;5040300;28;20208;-74
2022/06/14 06:57:48;;;;;;;4.60;1.83;;;;;;;12.99;79.70;101108.84;5041220;28;20252;-73
2022/06/14 07:00:19;;;;;;;4.17;2.17;;;;;;;13.16;78.59;101113.78;5045168;28;20206;-74
2022/06/14 07:02:48;;;;;;;3.13;1.63;;;;;;;13.18;75.87;101180.16;5047498;28;20573;-75
2022/06/14 07:05:17;;;;;;;5.10;2.00;;;;;;;13.40;75.48;101209.50;5038423;28;20227;-74
2022/06/14 07:07:50;;;;;;;3.07;2.20;;;;;;;13.54;74.86;101235.47;5042123;28;20584;-74
2022/06/14 07:10:25;;;;;;;3.60;1.70;;;;;;;13.74;72.85;101271.84;5041729;28;20208;-75
2022/06/14 07:12:57;;;;;;;3.37;2.37;;;;;;;13.89;73.81;101289.03;5041151;28;20822;-73
2022/06/14 07:15:32;;;;;;;2.87;1.60;;;;;;;13.83;73.12;101284.78;5036159;28;20229;-74
2022/06/14 07:18:06;;;;;;;4.67;2.00;;;;;;;13.75;72.94;101301.56;5039246;28;20660;-74
2022/06/14 07:20:48;;;;;;;6.27;2.03;;;;;;;13.63;72.68;101303.50;5050125;28;20190;-74
2022/06/14 07:23:22;;;;;;;2.37;1.60;;;;;;;13.63;72.79;101321.00;5050773;28;20217;-74
2022/06/14 07:25:57;;;;;;;4.13;1.97;;;;;;;13.48;74.68;101283.66;5050724;28;20715;-74
2022/06/14 07:28:32;;;;;;;4.20;1.87;;;;;;;13.63;73.38;101273.78;5050693;28;20198;-74
2022/06/14 07:31:03;;;;;;;5.57;2.30;;;;;;;13.68;72.19;101301.69;5050279;28;20208;-74
2022/06/14 07:33:31;;;;;;;3.77;2.00;;;;;;;13.71;72.35;101316.50;5050575;28;20202;-74
2022/06/14 07:36:02;;;;;;;3.37;1.90;;;;;;;13.69;72.56;101315.66;5050629;28;20773;-74
2022/06/14 07:38:35;;;;;;;2.57;1.70;;;;;;;13.76;72.41;101314.66;5051636;28;20569;-74
2022/06/14 07:41:14;;;;;;;3.23;1.87;;;;;;;13.92;71.83;101315.25;5054214;28;20271;-74
2022/06/14 07:43:48;;;;;;;3.23;1.73;;;;;;;14.16;70.93;101337.53;5053922;28;20209;-74
2022/06/14 07:46:23;;;;;;;3.37;1.73;;;;;;;14.26;69.81;101351.34;5054158;28;20670;-74
2022/06/14 07:48:58;;;;;;;4.37;1.50;;;;;;;14.32;70.77;101363.50;5053639;28;20201;-74
2022/06/14 07:51:30;;;;;;;2.47;1.20;;;;;;;14.26;66.22;101438.03;5054307;28;20209;-74
2022/06/14 07:54:03;;;;;;;4.27;1.20;;;;;;;14.21;66.67;101482.75;5046674;28;20218;-74
2022/06/14 07:56:33;;;;;;;5.33;1.20;;;;;;;14.29;66.72;101506.22;5054641;28;20229;-74
2022/06/14 07:59:05;;;;;;;2.73;1.30;;;;;;;14.17;63.19;101532.69;5046534;28;20186;-75
2022/06/14 08:01:35;;;;;;;3.10;0.90;;;;;;;14.09;65.16;101585.34;5054264;28;20232;-74
2022/06/14 08:04:07;;;;;;;5.57;1.37;;;;;;;14.28;64.03;101552.66;5053713;28;20229;-74
2022/06/14 08:06:37;;;;;;;3.10;0.90;;;;;;;14.37;65.17;101567.41;5053772;28;20243;-74
2022/06/14 08:09:09;;;;;;;3.33;1.20;;;;;;;14.29;64.34;101570.16;5053930;28;20198;-75
2022/06/14 08:11:41;;;;;;;2.53;1.30;;;;;;;14.42;65.65;101554.19;5053688;28;20229;-74
2022/06/14 08:14:12;;;;;;;2.47;1.33;;;;;;;14.44;65.71;101526.97;5053952;28;20196;-74
2022/06/14 08:16:42;;;;;;;2.73;1.23;;;;;;;14.60;65.76;101522.34;5052893;28;20561;-74
2022/06/14 08:19:14;;;;;;;4.47;1.63;;;;;;;14.64;63.78;101547.69;5053564;28;20205;-74
2022/06/14 08:21:45;;;;;;;4.33;1.30;;;;;;;14.59;63.18;101567.03;5053589;28;20194;-74
2022/06/14 08:24:16;;;;;;;2.67;1.20;;;;;;;14.57;62.57;101563.56;5053794;28;20272;-74
2022/06/14 08:26:48;;;;;;;2.73;1.17;;;;;;;14.76;65.00;101562.38;5053277;28;20222;-74
2022/06/14 08:29:22;;;;;;;2.33;1.07;;;;;;;14.81;63.40;101578.06;5053244;28;20279;-74
2022/06/14 08:31:55;;;;;;;3.00;1.50;;;;;;;14.92;62.94;101586.59;5051406;28;20224;-74
2022/06/14 08:34:26;;;;;;;2.47;1.40;;;;;;;15.01;62.79;101588.22;5053648;28;20269;-74
2022/06/14 08:36:57;;;;;;;3.83;1.70;;;;;;;15.08;61.61;101606.47;5053269;28;20291;-74
2022/06/14 08:39:30;;;;;;;2.53;1.57;;;;;;;14.93;59.57;101643.56;5059603;28;20718;-74
2022/06/14 08:42:09;;;;;;;2.83;1.57;;;;;;;15.14;59.57;101647.56;5053964;28;20259;-74
2022/06/14 08:44:39;;;;;;;4.20;1.60;;;;;;;15.35;60.04;101683.13;5052559;28;20694;-74
2022/06/14 08:47:33;;;;;;;2.87;1.17;;;;;;;15.72;60.52;101656.09;5053148;28;20759;-74
2022/06/14 08:50:09;;;;;;;3.93;1.60;;;;;;;15.62;58.80;101692.25;5051659;28;20252;-74
2022/06/14 08:53:02;;;;;;;1.63;0.90;;;;;;;15.57;59.56;101707.25;5052924;28;20928;-74
2022/06/14 08:55:56;;;;;;;3.13;1.40;;;;;;;15.77;58.75;101706.91;5053157;28;20226;-74
2022/06/14 08:58:41;;;;;;;2.80;1.00;;;;;;;15.84;58.20;101721.69;5052710;28;20579;-74
2022/06/14 09:01:19;;;;;;;1.63;1.13;;;;;;;15.84;58.58;101721.69;5051298;28;20683;-74
2022/06/14 09:04:23;;;;;;;3.43;1.30;;;;;;;15.88;59.30;101706.69;5046402;28;20212;-74
2022/06/14 09:07:17;;;;;;;2.90;1.20;;;;;;;15.88;58.84;101683.00;5044923;28;20225;-74
2022/06/14 09:10:27;;;;;;;2.33;1.30;;;;;;;15.66;61.03;101704.47;5044823;28;20207;-74
2022/06/14 09:13:27;;;;;;;2.27;1.50;;;;;;;15.88;60.50;101669.84;5010011;28;20203;-74
2022/06/14 09:16:30;;;;;;;3.43;1.47;;;;;;;15.40;61.08;101668.13;5007196;28;20298;-74
2022/06/14 09:19:02;;;;;;;4.40;1.53;;;;;;;15.73;60.56;101634.16;5039623;28;20195;-74
2022/06/14 09:21:40;;;;;;;3.23;1.60;;;;;;;16.02;59.62;101643.19;5044735;28;20256;-74
2022/06/14 09:24:15;;;;;;;3.63;1.50;;;;;;;16.15;58.42;101683.28;5047167;28;20206;-75
2022/06/14 09:26:55;;;;;;;3.93;1.20;;;;;;;16.03;56.03;101739.72;5043747;28;20220;-74
2022/06/14 09:30:03;;;;;;;3.97;1.30;;;;;;;15.98;56.78;101760.03;5044091;28;20218;-74
2022/06/14 09:35:54;;;;;;;3.30;1.60;;;;;;;16.12;57.72;101739.56;5044100;28;20249;-74
2022/06/14 09:38:49;;;;;;;3.43;1.30;;;;;;;16.30;57.64;101732.16;5051183;28;20206;-74
2022/06/14 09:41:32;;;;;;;1.93;1.23;;;;;;;16.25;55.73;101751.56;5051727;28;20211;-75
2022/06/14 09:44:42;;;;;;;3.33;1.20;;;;;;;16.46;54.99;101765.16;5051330;28;20693;-75
2022/06/14 09:47:22;;;;;;;2.97;1.50;;;;;;;16.61;53.61;101819.31;5044474;28;20246;-75
2022/06/14 09:50:23;;;;;;;4.53;1.70;;;;;;;16.81;51.50;101830.31;5051497;28;20195;-74
2022/06/14 09:53:19;;;;;;;3.87;1.40;;;;;;;17.09;50.83;101886.88;5051607;28;20808;-74
2022/06/14 09:56:00;;;;;;;1.80;1.40;;;;;;;17.25;50.85;101930.47;5049001;28;20278;-75
2022/06/14 09:59:05;;;;;;;4.00;1.50;;;;;;;17.11;52.40;101974.78;5045717;28;20254;-75
2022/06/14 10:01:40;;;;;;;3.13;1.60;;;;;;;16.56;54.69;101913.47;5048605;28;20192;-74
2022/06/14 10:04:40;;;;;;;2.03;1.40;;;;;;;16.02;55.62;101854.75;5051342;28;20628;-74
2022/06/14 10:07:25;;;;;;;6.73;1.73;;;;;;;16.34;55.68;101802.34;5051413;28;20222;-75
2022/06/14 10:10:16;;;;;;;1.70;1.03;;;;;;;16.52;56.19;101796.66;5051585;28;20202;-74
2022/06/14 10:13:18;;;;;;;5.20;1.60;;;;;;;16.44;56.57;101799.47;5045589;28;20199;-74
2022/06/14 10:15:57;;;;;;;2.97;1.50;;;;;;;16.57;56.30;101786.91;5051483;28;20223;-75
2022/06/14 10:18:39;;;;;;;2.60;1.47;;;;;;;16.80;55.82;101777.56;5051480;28;20202;-74
2022/06/14 10:21:11;;;;;;;3.03;1.40;;;;;;;16.63;54.11;101796.41;5051479;28;20605;-75
2022/06/14 10:23:52;;;;;;;1.40;1.00;;;;;;;16.86;53.26;101832.84;5051007;28;20278;-74
2022/06/14 10:29:53;;;;;;;4.30;1.60;;;;;;;16.86;54.29;101828.44;5050727;28;20251;-74
2022/06/14 10:32:56;;;;;;;3.40;1.23;;;;;;;16.90;56.34;101816.06;5051543;28;20202;-74
2022/06/14 10:35:32;;;;;;;2.40;1.30;;;;;;;16.64;52.09;101801.66;5042764;28;20203;-74
2022/06/14 10:38:30;;;;;;;5.87;1.43;;;;;;;17.02;52.49;101828.94;5043878;28;20194;-74
2022/06/14 10:41:01;;;;;;;2.20;1.10;;;;;;;17.04;51.84;101857.94;5033884;28;20627;-75
2022/06/14 10:43:38;;;;;;;2.57;1.40;;;;;;;16.88;51.96;101889.94;5050966;28;20228;-74
2022/06/14 10:46:10;;;;;;;2.30;1.20;;;;;;;17.06;52.05;101888.66;5050862;28;20627;-75
2022/06/14 10:48:55;;;;;;;3.53;1.43;;;;;;;17.05;51.79;101891.34;5051096;28;20203;-74
2022/06/14 10:51:37;;;;;;;2.10;1.10;;;;;;;17.43;50.73;101847.34;5050976;28;20848;-74
2022/06/14 10:54:11;;;;;;;3.87;1.37;;;;;;;17.51;51.10;101911.38;5051299;28;20233;-74
2022/06/14 10:57:03;;;;;;;3.07;1.13;;;;;;;17.45;51.76;101900.97;5050919;28;20716;-75
2022/06/14 11:00:00;;;;;;;1.60;1.27;;;;;;;17.38;51.92;101907.28;5050738;28;20261;-74
2022/06/14 11:02:45;;;;;;;3.47;1.30;;;;;;;17.52;53.85;101886.72;5048393;28;20256;-75
2022/06/14 11:05:22;;;;;;;2.20;1.40;;;;;;;17.80;53.60;101834.06;5050636;28;20219;-75
2022/06/14 11:08:08;;;;;;;3.53;1.50;;;;;;;18.03;52.50;101832.59;5051195;28;20193;-75
2022/06/14 11:11:00;;;;;;;2.83;1.50;;;;;;;18.16;52.25;101854.25;5043616;28;20207;-75
2022/06/14 11:13:41;;;;;;;3.10;1.27;;;;;;;18.24;50.83;101855.78;5051787;28;20195;-74
2022/06/14 11:16:17;;;;;;;5.03;1.43;;;;;;;18.03;50.89;101906.56;5054726;28;20216;-75
2022/06/14 11:19:09;;;;;;;3.23;1.70;;;;;;;17.84;51.28;101908.84;5048055;28;20189;-75
2022/06/14 11:22:02;;;;;;;5.17;1.37;;;;;;;17.88;52.06;101886.72;5047960;28;20299;-75
2022/06/14 11:24:38;;;;;;;2.73;1.47;;;;;;;17.63;51.16;101899.66;5043144;28;20209;-75
2022/06/14 11:27:20;;;;;;;5.77;1.50;;;;;;;18.05;49.67;101863.34;5046986;28;20227;-75
2022/06/14 11:29:56;;;;;;;2.03;1.30;;;;;;;18.39;50.17;101919.69;5045919;28;20619;-75
2022/06/14 11:32:29;;;;;;;2.57;1.30;;;;;;;18.35;48.32;101883.69;5053969;28;20203;-75
2022/06/14 11:35:09;;;;;;;3.07;1.80;;;;;;;18.15;48.66;101926.53;5046867;28;20287;-75
2022/06/14 11:37:48;;;;;;;2.60;1.37;;;;;;;18.32;48.26;101916.38;5054442;28;20204;-74
2022/06/14 11:40:19;;;;;;;2.57;1.50;;;;;;;18.39;48.84;101938.19;5054191;28;20196;-75
2022/06/14 11:43:02;;;;;;;3.03;1.37;;;;;;;18.99;48.55;101928.59;5053625;28;20226;-75
2022/06/14 11:45:41;;;;;;;1.67;1.20;;;;;;;19.90;47.62;101920.38;5053427;28;20722;-76
2022/06/14 11:48:18;;;;;;;2.10;1.30;;;;;;;20.19;46.21;101975.91;5046548;28;20204;-76
2022/06/14 11:50:52;;;;;;;4.00;1.40;;;;;;;20.04;44.05;102013.59;5053831;28;20540;-75
2022/06/14 11:53:34;;;;;;;3.33;1.60;;;;;;;20.71;45.19;102054.63;5054405;28;20206;-75
2022/06/14 11:56:08;;;;;;;4.47;1.70;;;;;;;21.03;43.26;102059.66;5053868;28;20745;-75
2022/06/14 11:58:50;;;;;;;3.10;1.40;;;;;;;20.72;43.39;102096.19;5053931;28;20206;-75
2022/06/14 12:01:28;;;;;;;2.77;1.47;;;;;;;20.28;42.62;102091.44;5049846;28;20201;-75
2022/06/14 12:04:11;;;;;;;2.87;1.63;;;;;;;20.66;45.04;102104.34;5050903;28;20214;-76
2022/06/14 12:06:46;;;;;;;3.40;1.40;;;;;;;20.72;44.21;102067.00;5048225;28;20218;-75
2022/06/14 12:09:29;;;;;;;3.70;1.63;;;;;;;20.39;45.25;102094.56;5053569;28;20189;-75
2022/06/14 12:12:00;;;;;;;3.13;1.60;;;;;;;19.27;46.65;102060.97;5053759;28;20258;-79
2022/06/14 12:14:52;;;;;;;3.70;1.50;;;;;;;19.29;48.22;102021.22;5053224;28;20196;-75